createdAt,value
2024-01-15T00:07:22.508Z,4.60
2024-01-15T00:17:25.825Z,4.90
2024-01-15T00:27:29.447Z,5.70
2024-01-15T00:37:33.264Z,6.00
2024-01-15T00:47:36.794Z,5.10
2024-01-15T00:57:41.409Z,4.90
2024-01-15T01:07:44.837Z,4.80
2024-01-15T01:17:48.280Z,4.70
2024-01-15T01:27:51.518Z,6.10
2024-01-15T01:37:54.872Z,5.00
2024-01-15T01:47:58.289Z,6.10
2024-01-15T01:58:02.387Z,6.80
2024-01-15T02:08:05.949Z,5.00
2024-01-15T02:18:10.124Z,5.10
2024-01-15T02:28:15.598Z,3.70
2024-01-15T02:38:19.320Z,2.50
2024-01-15T02:48:22.661Z,3.90
2024-01-15T02:58:26.032Z,4.90
2024-01-15T03:08:30.648Z,4.40
2024-01-15T03:18:34.088Z,4.90
2024-01-15T03:28:37.469Z,5.00
2024-01-15T03:38:43.650Z,4.40
2024-01-15T03:48:46.946Z,4.40
2024-01-15T03:58:50.259Z,4.20
2024-01-15T04:08:53.507Z,3.40
2024-01-15T04:18:56.724Z,3.80
2024-01-15T04:29:00.393Z,3.70
2024-01-15T04:39:03.634Z,4.30
2024-01-15T04:49:07.111Z,3.70
2024-01-15T04:59:10.423Z,3.70
2024-01-15T05:09:14.769Z,3.80
2024-01-15T05:19:18.451Z,4.50
2024-01-15T05:29:21.993Z,3.40
2024-01-15T05:39:25.160Z,3.40
2024-01-15T05:49:28.547Z,3.40
2024-01-15T05:59:33.539Z,3.50
2024-01-15T06:09:36.803Z,4.90
2024-01-15T06:19:40.192Z,4.20
2024-01-15T06:29:50.557Z,4.70
2024-01-15T06:39:54.654Z,4.60
2024-01-15T06:49:57.950Z,4.70
2024-01-15T07:00:02.172Z,5.00
2024-01-15T07:10:07.495Z,5.40
2024-01-15T07:20:11.416Z,5.80
2024-01-15T07:30:15.587Z,6.50
2024-01-15T07:40:18.919Z,6.00
2024-01-15T07:50:22.199Z,6.50
2024-01-15T08:00:25.575Z,7.40
2024-01-15T08:10:29.017Z,6.70
2024-01-15T08:20:32.357Z,6.80
2024-01-15T08:30:36.319Z,7.10
2024-01-15T08:40:39.793Z,6.70
2024-01-15T08:50:43.283Z,6.50
2024-01-15T09:00:46.507Z,8.00
2024-01-15T09:10:49.956Z,8.00
2024-01-15T09:20:53.304Z,7.20
2024-01-15T09:30:57.061Z,8.30
2024-01-15T09:41:00.855Z,10.20
2024-01-15T09:51:06.336Z,8.30
2024-01-15T10:01:11.194Z,11.50
2024-01-15T10:11:14.520Z,10.00
2024-01-15T10:21:17.776Z,11.60
2024-01-15T10:31:25.283Z,8.50
2024-01-15T10:41:30.661Z,7.20
2024-01-15T10:51:33.963Z,6.80
2024-01-15T11:01:38.822Z,10.00
2024-01-15T11:11:46.256Z,10.50
2024-01-15T11:21:49.666Z,9.90
2024-01-15T11:31:55.976Z,9.90
2024-01-15T11:42:01.305Z,7.70
2024-01-15T11:52:06.434Z,6.70
2024-01-15T12:02:09.835Z,6.70
2024-01-15T12:12:25.841Z,8.30
2024-01-15T12:22:30.079Z,7.00
2024-01-15T12:32:35.975Z,7.00
2024-01-15T12:42:41.190Z,6.80
2024-01-15T12:52:45.024Z,7.70
2024-01-15T13:02:48.770Z,7.00
2024-01-15T13:12:53.605Z,6.50
2024-01-15T13:22:56.859Z,8.20
2024-01-15T13:33:05.238Z,7.80
2024-01-15T13:43:09.656Z,7.90
2024-01-15T13:53:13.232Z,8.10
2024-01-15T14:03:16.852Z,7.30
2024-01-15T14:13:20.225Z,10.00
2024-01-15T14:23:23.770Z,13.00
2024-01-15T14:33:28.195Z,11.30
2024-01-15T14:43:31.693Z,15.40
2024-01-15T14:53:34.933Z,9.40
2024-01-15T15:03:38.336Z,10.30
2024-01-15T15:13:45.578Z,12.80
2024-01-15T15:23:49.865Z,9.80
2024-01-15T15:33:53.158Z,12.80
2024-01-15T15:43:56.754Z,13.90
2024-01-15T15:53:59.929Z,9.50
2024-01-15T16:04:05.525Z,8.30
2024-01-15T16:14:08.973Z,11.00
2024-01-15T16:24:20.396Z,16.60
2024-01-15T16:34:29.972Z,26.40
2024-01-15T16:44:33.634Z,18.30
2024-01-15T16:54:38.753Z,26.20
2024-01-15T17:04:43.809Z,30.20
2024-01-15T17:14:46.941Z,27.60
2024-01-15T17:24:52.963Z,18.10
2024-01-15T17:34:56.407Z,18.60
2024-01-15T17:44:59.704Z,19.70
2024-01-15T17:55:04.279Z,20.90
2024-01-15T18:05:11.092Z,18.40
2024-01-15T18:15:14.552Z,23.00
2024-01-15T18:25:17.922Z,16.90
2024-01-15T18:35:22.948Z,20.00
2024-01-15T18:45:26.424Z,28.80
2024-01-15T18:55:29.592Z,16.50
2024-01-15T19:05:32.967Z,13.90
2024-01-15T19:15:36.224Z,11.30
2024-01-15T19:25:41.640Z,24.50
2024-01-15T19:35:45.497Z,19.70
2024-01-15T19:46:13.386Z,16.40
2024-01-15T19:56:24.886Z,16.40
2024-01-15T20:06:29.151Z,16.30
2024-01-15T20:16:32.873Z,12.40
2024-01-15T20:26:38.923Z,17.40
2024-01-15T20:36:42.770Z,14.50
2024-01-15T20:46:47.664Z,11.00
2024-01-15T20:56:53.309Z,11.10
2024-01-15T21:06:59.529Z,10.60
2024-01-15T21:17:04.759Z,13.10
2024-01-15T21:27:07.960Z,14.20
2024-01-15T21:37:13.850Z,11.10
2024-01-15T21:47:17.185Z,10.50
2024-01-15T21:57:20.623Z,8.20
2024-01-15T22:07:23.861Z,9.60
2024-01-15T22:17:27.270Z,9.30
2024-01-15T22:27:30.555Z,8.10
2024-01-15T22:37:34.764Z,6.10
2024-01-15T22:47:38.322Z,9.20
2024-01-15T22:57:41.916Z,6.60
2024-01-15T23:07:45.129Z,8.90
2024-01-15T23:17:48.870Z,8.10
2024-01-15T23:27:52.683Z,6.20
2024-01-15T23:37:56.225Z,5.90
2024-01-15T23:47:59.530Z,6.20
2024-01-15T23:58:02.711Z,5.70
